createdAt,value
2023-04-15T00:01:04.820Z,4.23
2023-04-15T00:03:32.170Z,4.19
2023-04-15T00:06:00.250Z,4.16
2023-04-15T00:08:27.700Z,4.14
2023-04-15T00:10:54.605Z,4.10
2023-04-15T00:13:21.724Z,4.06
2023-04-15T00:15:48.871Z,4.03
2023-04-15T00:18:16.028Z,4.01
2023-04-15T00:20:42.884Z,4.01
2023-04-15T00:23:09.822Z,4.01
2023-04-15T00:25:36.983Z,4.03
2023-04-15T00:28:04.221Z,4.02
2023-04-15T00:30:31.748Z,4.01
2023-04-15T00:32:58.729Z,3.99
2023-04-15T00:35:25.725Z,4.00
2023-04-15T00:37:52.976Z,3.98
2023-04-15T00:40:22.109Z,3.98
2023-04-15T00:42:48.956Z,3.96
2023-04-15T00:45:16.106Z,3.96
2023-04-15T00:47:44.774Z,3.99
2023-04-15T00:50:13.067Z,3.97
2023-04-15T00:52:41.180Z,3.97
2023-04-15T00:55:09.585Z,3.99
2023-04-15T00:57:37.446Z,3.99
2023-04-15T01:00:08.239Z,4.00
2023-04-15T01:02:37.068Z,3.95
2023-04-15T01:05:04.627Z,4.04
2023-04-15T01:07:32.409Z,4.12
2023-04-15T01:09:59.611Z,4.18
2023-04-15T01:12:28.258Z,4.23
2023-04-15T01:14:56.476Z,4.27
2023-04-15T01:17:25.466Z,4.32
2023-04-15T01:19:53.412Z,4.36
2023-04-15T01:22:20.424Z,4.43
2023-04-15T01:25:02.637Z,4.49
2023-04-15T01:27:30.680Z,4.57
2023-04-15T01:29:57.786Z,4.54
2023-04-15T01:32:25.419Z,4.65
2023-04-15T01:34:52.348Z,4.66
2023-04-15T01:37:19.287Z,4.69
2023-04-15T01:39:46.759Z,4.75
2023-04-15T01:42:13.625Z,4.83
2023-04-15T01:44:40.487Z,4.81
2023-04-15T01:47:07.494Z,4.85
2023-04-15T01:49:35.030Z,4.90
2023-04-15T01:52:01.918Z,4.93
2023-04-15T01:54:28.879Z,5.01
2023-04-15T01:56:57.079Z,4.96
2023-04-15T01:59:24.016Z,4.99
2023-04-15T02:01:51.180Z,5.01
2023-04-15T02:04:18.597Z,5.05
2023-04-15T02:06:46.341Z,5.08
2023-04-15T02:09:13.672Z,5.06
2023-04-15T02:11:40.582Z,5.11
2023-04-15T02:14:07.461Z,5.12
2023-04-15T02:16:34.956Z,5.13
2023-04-15T02:19:02.420Z,5.15
2023-04-15T02:21:30.528Z,5.21
2023-04-15T02:23:57.664Z,5.21
2023-04-15T02:26:25.815Z,5.21
2023-04-15T02:28:52.738Z,5.22
2023-04-15T02:31:19.822Z,5.24
2023-04-15T02:33:47.096Z,5.24
2023-04-15T02:36:13.960Z,5.21
2023-04-15T02:38:42.799Z,5.17
2023-04-15T02:41:12.971Z,5.13
2023-04-15T02:43:40.234Z,5.06
2023-04-15T02:46:07.380Z,5.01
2023-04-15T02:48:34.517Z,4.96
2023-04-15T02:51:23.082Z,4.88
2023-04-15T02:53:50.897Z,4.82
2023-04-15T02:56:19.579Z,4.78
2023-04-15T02:58:46.801Z,4.74
2023-04-15T03:01:14.235Z,4.67
2023-04-15T03:03:41.642Z,4.63
2023-04-15T03:06:09.269Z,4.61
2023-04-15T03:08:36.640Z,4.62
2023-04-15T03:11:04.336Z,4.59
2023-04-15T03:13:31.813Z,4.63
2023-04-15T03:15:58.702Z,4.59
2023-04-15T03:18:25.876Z,4.57
2023-04-15T03:20:52.889Z,4.52
2023-04-15T03:23:20.019Z,4.48
2023-04-15T03:25:46.882Z,4.43
2023-04-15T03:28:13.924Z,4.39
2023-04-15T03:30:41.172Z,4.34
2023-04-15T03:33:08.818Z,4.33
2023-04-15T03:35:35.764Z,4.31
2023-04-15T03:38:02.594Z,4.30
2023-04-15T03:40:29.550Z,4.30
2023-04-15T03:42:56.588Z,4.35
2023-04-15T03:45:23.855Z,4.38
2023-04-15T03:47:50.840Z,4.45
2023-04-15T03:50:18.184Z,4.49
2023-04-15T03:52:45.950Z,4.50
2023-04-15T03:55:12.936Z,4.47
2023-04-15T03:57:39.979Z,4.52
2023-04-15T04:00:09.554Z,4.55
2023-04-15T04:02:37.088Z,4.57
2023-04-15T04:05:04.775Z,4.58
2023-04-15T04:07:32.603Z,4.59
2023-04-15T04:09:59.450Z,4.59
2023-04-15T04:12:26.533Z,4.58
2023-04-15T04:14:53.712Z,4.59
2023-04-15T04:17:20.804Z,4.63
2023-04-15T04:19:47.947Z,4.60
2023-04-15T04:22:14.828Z,4.58
2023-04-15T04:24:41.663Z,4.65
2023-04-15T04:27:08.554Z,4.61
2023-04-15T04:29:35.426Z,4.57
2023-04-15T04:32:02.312Z,4.57
2023-04-15T04:34:29.224Z,4.52
2023-04-15T04:36:56.233Z,4.42
2023-04-15T04:39:23.161Z,4.36
2023-04-15T04:41:52.495Z,4.30
2023-04-15T04:44:19.421Z,4.21
2023-04-15T04:46:46.649Z,4.13
2023-04-15T04:49:13.519Z,4.06
2023-04-15T04:51:40.500Z,3.98
2023-04-15T04:54:07.868Z,3.92
2023-04-15T04:56:34.991Z,3.86
2023-04-15T04:59:02.405Z,3.79
2023-04-15T05:01:29.546Z,3.73
2023-04-15T05:03:56.835Z,3.68
2023-04-15T05:06:23.860Z,3.66
2023-04-15T05:08:51.252Z,3.70
2023-04-15T05:11:18.137Z,3.74
2023-04-15T05:13:45.171Z,3.79
2023-04-15T05:16:12.594Z,3.82
2023-04-15T05:18:39.479Z,3.91
2023-04-15T05:21:07.062Z,3.89
2023-04-15T05:23:34.348Z,3.93
2023-04-15T05:26:01.375Z,3.92
2023-04-15T05:28:28.237Z,3.93
2023-04-15T05:30:55.704Z,3.93
2023-04-15T05:33:23.561Z,3.96
2023-04-15T05:35:50.760Z,4.01
2023-04-15T05:38:17.625Z,4.02
2023-04-15T05:40:44.544Z,3.99
2023-04-15T05:43:11.888Z,3.97
2023-04-15T05:45:38.752Z,4.03
2023-04-15T05:48:05.889Z,4.04
2023-04-15T05:50:32.937Z,4.04
2023-04-15T05:52:59.886Z,4.06
2023-04-15T05:55:27.691Z,4.02
2023-04-15T05:57:54.560Z,4.06
2023-04-15T06:00:21.895Z,4.04
2023-04-15T06:02:48.874Z,3.98
2023-04-15T06:05:15.963Z,4.02
2023-04-15T06:07:45.515Z,4.05
2023-04-15T06:10:13.906Z,4.07
2023-04-15T06:12:41.086Z,4.07
2023-04-15T06:15:10.794Z,4.14
2023-04-15T06:17:37.749Z,4.13
2023-04-15T06:20:05.295Z,4.15
2023-04-15T06:22:32.189Z,4.17
2023-04-15T06:24:59.077Z,4.22
2023-04-15T06:27:26.113Z,4.26
2023-04-15T06:29:53.016Z,4.35
2023-04-15T06:32:19.921Z,4.45
2023-04-15T06:34:47.228Z,4.39
2023-04-15T06:37:16.575Z,4.45
2023-04-15T06:39:45.026Z,4.50
2023-04-15T06:42:12.397Z,4.52
2023-04-15T06:44:40.114Z,4.56
2023-04-15T06:47:07.102Z,4.66
2023-04-15T06:49:34.181Z,4.66
2023-04-15T06:52:01.866Z,4.68
2023-04-15T06:54:28.722Z,4.68
2023-04-15T06:56:55.972Z,4.73
2023-04-15T06:59:22.839Z,4.85
2023-04-15T07:01:50.023Z,4.93
2023-04-15T07:04:17.158Z,4.99
2023-04-15T07:06:44.788Z,5.02
2023-04-15T07:09:12.086Z,5.06
2023-04-15T07:11:38.928Z,5.08
2023-04-15T07:14:06.193Z,5.05
2023-04-15T07:16:33.237Z,5.13
2023-04-15T07:19:00.287Z,5.11
2023-04-15T07:21:27.945Z,5.21
2023-04-15T07:23:54.875Z,5.22
2023-04-15T07:26:21.974Z,5.28
2023-04-15T07:28:49.756Z,5.43
2023-04-15T07:31:17.912Z,5.47
2023-04-15T07:33:45.289Z,5.55
2023-04-15T07:36:12.154Z,5.55
2023-04-15T07:38:39.942Z,5.62
2023-04-15T07:41:06.939Z,5.65
2023-04-15T07:43:34.187Z,5.69
2023-04-15T07:46:01.080Z,5.76
2023-04-15T07:48:27.943Z,5.82
2023-04-15T07:50:54.789Z,5.87
2023-04-15T07:53:21.695Z,5.86
2023-04-15T07:55:48.526Z,6.01
2023-04-15T07:58:15.911Z,6.10
2023-04-15T08:00:42.790Z,6.22
2023-04-15T08:03:09.889Z,6.25
2023-04-15T08:05:36.980Z,6.44
2023-04-15T08:08:03.921Z,6.51
2023-04-15T08:10:31.021Z,6.66
2023-04-15T08:12:57.929Z,6.59
2023-04-15T08:15:25.843Z,6.78
2023-04-15T08:17:52.927Z,7.07
2023-04-15T08:20:20.877Z,7.35
2023-04-15T08:22:52.148Z,7.58
2023-04-15T08:25:20.332Z,7.72
2023-04-15T08:27:47.566Z,7.95
2023-04-15T08:30:14.833Z,8.23
2023-04-15T08:32:46.530Z,8.58
2023-04-15T08:35:14.352Z,9.07
2023-04-15T08:37:41.520Z,9.35
2023-04-15T08:40:10.143Z,9.70
2023-04-15T08:42:49.590Z,9.95
2023-04-15T08:45:18.527Z,10.07
2023-04-15T08:47:47.148Z,10.33
2023-04-15T08:50:15.673Z,10.53
2023-04-15T08:52:42.846Z,10.76
2023-04-15T08:55:11.850Z,10.95
2023-04-15T08:57:40.060Z,10.99
2023-04-15T09:00:10.021Z,11.01
2023-04-15T09:02:37.419Z,10.80
2023-04-15T09:05:06.782Z,10.96
2023-04-15T09:07:36.093Z,10.82
2023-04-15T09:10:05.012Z,10.56
2023-04-15T09:12:37.802Z,10.53
2023-04-15T09:15:05.280Z,10.33
2023-04-15T09:17:34.877Z,10.19
2023-04-15T09:20:14.867Z,10.18
2023-04-15T09:22:45.171Z,10.21
2023-04-15T09:25:32.162Z,10.35
2023-04-15T09:28:02.341Z,10.60
2023-04-15T09:30:30.015Z,10.85
2023-04-15T09:33:00.045Z,10.96
2023-04-15T09:35:30.344Z,10.96
2023-04-15T09:38:10.248Z,11.03
2023-04-15T09:40:43.490Z,11.06
2023-04-15T09:43:13.229Z,11.16
2023-04-15T09:45:49.172Z,11.19
2023-04-15T09:48:27.036Z,11.23
2023-04-15T09:50:54.616Z,11.17
2023-04-15T09:53:23.866Z,11.10
2023-04-15T09:55:58.832Z,11.07
2023-04-15T09:58:31.805Z,10.96
2023-04-15T10:01:02.097Z,10.99
2023-04-15T10:03:36.187Z,10.98
2023-04-15T10:06:06.482Z,10.99
2023-04-15T10:08:35.268Z,10.98
2023-04-15T10:11:02.941Z,11.15
2023-04-15T10:13:37.753Z,11.27
2023-04-15T10:16:12.551Z,11.35
2023-04-15T10:18:45.355Z,11.38
2023-04-15T10:21:18.846Z,11.48
2023-04-15T10:23:47.043Z,11.56
2023-04-15T10:26:17.437Z,11.59
2023-04-15T10:28:47.396Z,11.70
2023-04-15T10:31:15.378Z,11.67
2023-04-15T10:33:45.092Z,11.64
2023-04-15T10:36:13.429Z,11.73
2023-04-15T10:38:45.977Z,11.72
2023-04-15T10:41:19.478Z,11.74
2023-04-15T10:44:05.430Z,11.68
2023-04-15T10:46:46.989Z,11.73
2023-04-15T10:49:25.422Z,11.72
2023-04-15T10:51:58.728Z,11.82
2023-04-15T10:54:25.518Z,11.87
2023-04-15T10:57:08.966Z,11.89
2023-04-15T11:00:01.251Z,11.87
2023-04-15T11:02:55.022Z,11.97
2023-04-15T11:05:44.190Z,12.06
2023-04-15T11:08:12.456Z,12.11
2023-04-15T11:10:39.290Z,12.17
2023-04-15T11:13:12.322Z,12.22
2023-04-15T11:15:47.518Z,12.31
2023-04-15T11:18:24.037Z,12.26
2023-04-15T11:20:59.797Z,12.31
2023-04-15T11:23:49.528Z,12.38
2023-04-15T11:26:16.476Z,12.38
2023-04-15T11:28:45.734Z,12.47
2023-04-15T11:31:18.638Z,12.66
2023-04-15T11:34:02.772Z,12.80
2023-04-15T11:36:32.364Z,12.85
2023-04-15T11:39:00.531Z,12.75
2023-04-15T11:41:27.707Z,12.59
2023-04-15T11:43:54.852Z,12.63
2023-04-15T11:46:23.229Z,12.60
2023-04-15T11:48:50.582Z,12.64
2023-04-15T11:51:17.738Z,12.60
2023-04-15T11:53:50.777Z,12.58
2023-04-15T11:56:28.703Z,12.55
2023-04-15T11:59:01.503Z,12.58
2023-04-15T12:01:46.859Z,12.65
2023-04-15T12:04:15.912Z,12.66
2023-04-15T12:06:43.256Z,12.88
2023-04-15T12:09:13.255Z,12.95
2023-04-15T12:11:50.312Z,12.90
2023-04-15T12:14:31.399Z,12.99
2023-04-15T12:17:07.422Z,13.01
2023-04-15T12:19:43.226Z,12.96
2023-04-15T12:22:14.129Z,12.96
2023-04-15T12:24:48.505Z,12.97
2023-04-15T12:27:17.204Z,12.98
2023-04-15T12:29:44.274Z,12.84
2023-04-15T12:32:16.080Z,12.92
2023-04-15T12:34:54.671Z,12.98
2023-04-15T12:37:22.243Z,13.14
2023-04-15T12:39:50.728Z,13.35
2023-04-15T12:42:18.873Z,13.50
2023-04-15T12:44:46.638Z,13.63
2023-04-15T12:47:14.493Z,13.73
2023-04-15T12:49:41.723Z,13.78
2023-04-15T12:52:08.691Z,13.84
2023-04-15T12:54:36.606Z,13.91
2023-04-15T12:57:06.799Z,13.95
2023-04-15T12:59:35.512Z,13.92
2023-04-15T13:02:04.647Z,13.97
2023-04-15T13:04:32.211Z,14.03
2023-04-15T13:06:59.293Z,14.09
2023-04-15T13:09:26.262Z,14.01
2023-04-15T13:11:53.423Z,14.00
2023-04-15T13:14:20.449Z,14.06
2023-04-15T13:16:47.448Z,14.09
2023-04-15T13:19:15.060Z,14.11
2023-04-15T13:21:41.985Z,14.16
2023-04-15T13:24:09.921Z,14.21
2023-04-15T13:26:36.933Z,14.22
2023-04-15T13:29:03.826Z,14.24
2023-04-15T13:31:31.372Z,14.26
2023-04-15T13:33:58.260Z,14.24
2023-04-15T13:36:25.334Z,14.25
2023-04-15T13:38:52.353Z,14.32
2023-04-15T13:41:20.294Z,14.28
2023-04-15T13:43:47.494Z,14.28
2023-04-15T13:46:14.948Z,14.28
2023-04-15T13:48:42.108Z,14.30
2023-04-15T13:51:09.110Z,14.31
2023-04-15T13:53:39.210Z,14.33
2023-04-15T13:56:10.730Z,14.31
2023-04-15T13:58:38.641Z,14.17
2023-04-15T14:01:07.246Z,14.26
2023-04-15T14:03:38.653Z,14.21
2023-04-15T14:06:08.528Z,14.24
2023-04-15T14:08:35.407Z,14.28
2023-04-15T14:11:02.435Z,14.19
2023-04-15T14:13:29.620Z,14.15
2023-04-15T14:15:57.566Z,14.09
2023-04-15T14:18:24.542Z,14.13
2023-04-15T14:20:51.982Z,14.08
2023-04-15T14:23:18.902Z,14.06
2023-04-15T14:25:47.919Z,14.06
2023-04-15T14:28:15.527Z,14.06
2023-04-15T14:30:42.769Z,14.08
2023-04-15T14:33:09.869Z,14.10
2023-04-15T14:35:36.844Z,14.14
2023-04-15T14:38:04.217Z,14.18
2023-04-15T14:40:31.225Z,14.24
2023-04-15T14:42:58.078Z,14.29
2023-04-15T14:45:25.133Z,14.31
2023-04-15T14:47:53.563Z,14.40
2023-04-15T14:50:20.593Z,14.48
2023-04-15T14:52:47.590Z,14.49
2023-04-15T14:55:14.870Z,14.59
2023-04-15T14:57:43.255Z,14.62
2023-04-15T15:00:14.534Z,14.74
2023-04-15T15:02:43.641Z,14.77
2023-04-15T15:05:12.338Z,14.81
2023-04-15T15:07:41.205Z,14.86
2023-04-15T15:10:08.730Z,14.94
2023-04-15T15:12:36.162Z,15.04
2023-04-15T15:15:15.711Z,15.08
2023-04-15T15:17:52.446Z,15.08
2023-04-15T15:20:19.685Z,15.16
2023-04-15T15:22:46.650Z,15.17
2023-04-15T15:25:13.576Z,15.16
2023-04-15T15:27:40.637Z,15.30
2023-04-15T15:30:08.287Z,15.35
2023-04-15T15:32:35.760Z,15.26
2023-04-15T15:35:02.816Z,15.33
2023-04-15T15:37:31.727Z,15.35
2023-04-15T15:39:58.897Z,15.25
2023-04-15T15:42:25.786Z,15.40
2023-04-15T15:44:53.411Z,15.29
2023-04-15T15:47:22.746Z,15.40
2023-04-15T15:49:49.958Z,15.42
2023-04-15T15:52:16.837Z,15.49
2023-04-15T15:54:44.089Z,15.50
2023-04-15T15:57:11.536Z,15.43
2023-04-15T15:59:41.434Z,15.26
2023-04-15T16:02:12.041Z,15.19
2023-04-15T16:04:40.114Z,15.10
2023-04-15T16:07:07.206Z,15.01
2023-04-15T16:09:34.123Z,14.93
2023-04-15T16:12:02.400Z,14.82
2023-04-15T16:14:29.319Z,14.73
2023-04-15T16:16:56.792Z,14.60
2023-04-15T16:19:23.842Z,14.51
2023-04-15T16:21:51.370Z,14.43
2023-04-15T16:24:18.513Z,14.35
2023-04-15T16:26:45.614Z,14.22
2023-04-15T16:29:12.583Z,14.10
2023-04-15T16:31:40.309Z,14.00
2023-04-15T16:34:07.322Z,13.92
2023-04-15T16:36:35.891Z,13.82
2023-04-15T16:39:02.983Z,13.77
2023-04-15T16:41:30.106Z,13.69
2023-04-15T16:43:58.898Z,13.62
2023-04-15T16:46:25.900Z,13.59
2023-04-15T16:48:53.153Z,13.51
2023-04-15T16:51:20.019Z,13.48
2023-04-15T16:53:46.973Z,13.47
2023-04-15T16:56:13.919Z,13.43
2023-04-15T16:58:41.013Z,13.45
2023-04-15T17:01:08.678Z,13.41
2023-04-15T17:03:37.116Z,13.38
2023-04-15T17:06:04.465Z,13.32
2023-04-15T17:08:31.333Z,13.32
2023-04-15T17:10:58.812Z,13.32
2023-04-15T17:13:26.850Z,13.32
2023-04-15T17:15:55.768Z,13.39
2023-04-15T17:18:22.838Z,13.43
2023-04-15T17:20:49.750Z,13.48
2023-04-15T17:23:16.695Z,13.50
2023-04-15T17:25:43.682Z,13.55
2023-04-15T17:28:10.757Z,13.59
2023-04-15T17:30:37.809Z,13.55
2023-04-15T17:33:55.287Z,13.64
2023-04-15T17:35:51.691Z,13.67
2023-04-15T17:38:18.760Z,13.66
2023-04-15T17:40:45.687Z,13.65
2023-04-15T17:43:12.678Z,13.64
2023-04-15T17:45:39.616Z,13.59
2023-04-15T17:48:06.655Z,13.51
2023-04-15T17:50:33.643Z,13.40
2023-04-15T17:53:00.744Z,13.29
2023-04-15T17:55:27.624Z,13.17
2023-04-15T17:57:54.703Z,13.07
2023-04-15T18:00:21.751Z,13.01
2023-04-15T18:02:49.057Z,12.96
2023-04-15T18:05:18.997Z,12.94
2023-04-15T18:07:46.301Z,12.87
2023-04-15T18:10:13.202Z,12.82
2023-04-15T18:12:40.103Z,12.80
2023-04-15T18:15:09.681Z,12.74
2023-04-15T18:17:36.800Z,12.66
2023-04-15T18:20:04.512Z,12.61
2023-04-15T18:22:31.386Z,12.53
2023-04-15T18:25:04.263Z,12.47
2023-04-15T18:27:32.679Z,12.38
2023-04-15T18:30:00.164Z,12.25
2023-04-15T18:32:31.814Z,12.18
2023-04-15T18:34:59.084Z,12.07
2023-04-15T18:37:27.200Z,11.98
2023-04-15T18:39:54.473Z,11.93
2023-04-15T18:42:22.637Z,11.83
2023-04-15T18:44:50.086Z,11.73
2023-04-15T18:47:17.874Z,11.64
2023-04-15T18:49:44.978Z,11.50
2023-04-15T18:52:12.553Z,11.38
2023-04-15T18:54:39.547Z,11.28
2023-04-15T18:57:07.099Z,11.21
2023-04-15T18:59:34.337Z,11.13
2023-04-15T19:02:02.444Z,11.05
2023-04-15T19:04:29.631Z,10.96
2023-04-15T19:06:56.887Z,10.87
2023-04-15T19:09:24.129Z,10.81
2023-04-15T19:11:51.135Z,10.72
2023-04-15T19:14:18.912Z,10.65
2023-04-15T19:16:45.857Z,10.57
2023-04-15T19:19:14.916Z,10.51
2023-04-15T19:21:41.962Z,10.45
2023-04-15T19:24:09.051Z,10.41
2023-04-15T19:26:37.187Z,10.37
2023-04-15T19:29:04.180Z,10.33
2023-04-15T19:31:31.268Z,10.29
2023-04-15T19:33:58.132Z,10.22
2023-04-15T19:36:25.057Z,10.19
2023-04-15T19:38:52.377Z,10.14
2023-04-15T19:41:19.565Z,10.09
2023-04-15T19:43:46.440Z,10.07
2023-04-15T19:46:13.711Z,10.05
2023-04-15T19:48:40.773Z,10.04
2023-04-15T19:51:07.716Z,10.00
2023-04-15T19:53:35.056Z,10.00
2023-04-15T19:56:02.200Z,9.97
2023-04-15T19:58:29.340Z,9.94
2023-04-15T20:00:57.109Z,9.94
2023-04-15T20:03:24.302Z,9.92
2023-04-15T20:05:51.388Z,9.88
2023-04-15T20:08:18.580Z,9.87
2023-04-15T20:10:45.634Z,9.82
2023-04-15T20:13:13.312Z,9.82
2023-04-15T20:15:40.212Z,9.81
2023-04-15T20:18:07.249Z,9.81
2023-04-15T20:20:35.606Z,9.81
2023-04-15T20:23:02.847Z,9.78
2023-04-15T20:25:29.814Z,9.74
2023-04-15T20:28:00.415Z,9.72
2023-04-15T20:30:29.639Z,9.72
2023-04-15T20:32:56.713Z,9.70
2023-04-15T20:35:25.428Z,9.65
2023-04-15T20:37:52.435Z,9.62
2023-04-15T20:40:19.311Z,9.60
2023-04-15T20:42:46.291Z,9.59
2023-04-15T20:45:13.259Z,9.56
2023-04-15T20:47:40.183Z,9.52
2023-04-15T20:50:08.427Z,9.54
2023-04-15T20:52:35.301Z,9.52
2023-04-15T20:55:02.183Z,9.51
2023-04-15T20:57:30.406Z,9.51
2023-04-15T20:59:57.653Z,9.52
2023-04-15T21:02:25.066Z,9.50
2023-04-15T21:04:52.117Z,9.51
2023-04-15T21:07:19.008Z,9.47
2023-04-15T21:09:47.118Z,9.49
2023-04-15T21:12:14.324Z,9.43
2023-04-15T21:14:41.291Z,9.40
2023-04-15T21:17:11.194Z,9.39
2023-04-15T21:19:38.859Z,9.38
2023-04-15T21:22:05.883Z,9.37
2023-04-15T21:24:32.772Z,9.39
2023-04-15T21:26:59.620Z,9.35
2023-04-15T21:29:26.621Z,9.37
2023-04-15T21:31:53.582Z,9.34
2023-04-15T21:34:20.520Z,9.30
2023-04-15T21:36:47.459Z,9.29
2023-04-15T21:39:14.387Z,9.26
2023-04-15T21:41:41.332Z,9.26
2023-04-15T21:44:08.625Z,9.22
2023-04-15T21:46:35.888Z,9.24
2023-04-15T21:49:03.788Z,9.22
2023-04-15T21:51:31.718Z,9.21
2023-04-15T21:53:59.460Z,9.16
2023-04-15T21:56:26.702Z,9.15
2023-04-15T21:58:59.793Z,9.13
2023-04-15T22:01:27.155Z,9.11
2023-04-15T22:03:54.325Z,9.11
2023-04-15T22:06:21.691Z,9.09
2023-04-15T22:08:57.083Z,9.08
2023-04-15T22:11:28.806Z,9.07
2023-04-15T22:13:57.503Z,9.04
2023-04-15T22:16:28.903Z,9.03
2023-04-15T22:18:56.262Z,9.04
2023-04-15T22:21:26.972Z,9.02
2023-04-15T22:24:33.776Z,9.03
2023-04-15T22:26:41.372Z,9.01
2023-04-15T22:29:08.592Z,8.99
2023-04-15T22:31:35.829Z,8.98
2023-04-15T22:34:02.717Z,8.97
2023-04-15T22:36:31.961Z,8.95
2023-04-15T22:38:58.899Z,8.94
2023-04-15T22:41:25.762Z,8.91
2023-04-15T22:43:53.000Z,8.91
2023-04-15T22:46:20.060Z,8.91
2023-04-15T22:48:47.119Z,8.88
2023-04-15T22:51:22.265Z,8.84
2023-04-15T22:53:50.655Z,8.84
2023-04-15T22:56:22.844Z,8.82
2023-04-15T22:58:50.130Z,8.78
2023-04-15T23:01:18.072Z,8.73
2023-04-15T23:03:57.001Z,8.72
2023-04-15T23:06:30.390Z,8.69
2023-04-15T23:08:57.442Z,8.65
2023-04-15T23:11:24.378Z,8.63
2023-04-15T23:13:51.323Z,8.63
2023-04-15T23:16:18.290Z,8.64
2023-04-15T23:18:45.188Z,8.62
2023-04-15T23:21:12.134Z,8.61
2023-04-15T23:23:39.080Z,8.60
2023-04-15T23:26:06.469Z,8.58
2023-04-15T23:28:33.585Z,8.59
2023-04-15T23:31:00.763Z,8.58
2023-04-15T23:33:27.960Z,8.56
2023-04-15T23:35:54.915Z,8.56
2023-04-15T23:38:21.852Z,8.58
2023-04-15T23:40:48.777Z,8.55
2023-04-15T23:43:15.654Z,8.56
2023-04-15T23:45:42.663Z,8.55
2023-04-15T23:48:09.591Z,8.55
2023-04-15T23:50:36.484Z,8.56
2023-04-15T23:53:03.421Z,8.53
2023-04-15T23:55:31.445Z,8.54
2023-04-15T23:57:58.382Z,8.56
